createdAt,value
2022-08-09T00:01:48.401Z,100244.30
2022-08-09T00:05:03.012Z,100237.91
2022-08-09T00:07:54.875Z,100236.91
2022-08-09T00:11:05.803Z,100238.16
2022-08-09T00:14:10.165Z,100239.46
2022-08-09T00:18:07.548Z,100242.71
2022-08-09T00:20:25.039Z,100237.42
2022-08-09T00:23:55.684Z,100237.92
2022-08-09T00:26:42.066Z,100235.59
2022-08-09T00:30:23.648Z,100234.66
2022-08-09T00:32:56.277Z,100231.03
2022-08-09T00:36:05.599Z,100229.88
2022-08-09T00:39:17.009Z,100237.67
2022-08-09T00:44:13.997Z,100245.44
2022-08-09T00:45:26.329Z,100239.78
2022-08-09T00:48:32.302Z,100234.02
2022-08-09T00:51:42.611Z,100232.83
2022-08-09T00:54:46.661Z,100234.19
2022-08-09T00:57:52.317Z,100232.92
2022-08-09T01:01:00.822Z,100229.45
2022-08-09T01:04:09.262Z,100229.91
2022-08-09T01:08:00.146Z,100224.69
2022-08-09T01:11:16.053Z,100225.55
2022-08-09T01:14:34.205Z,100229.53
2022-08-09T01:17:49.322Z,100227.13
2022-08-09T01:21:24.832Z,100228.70
2022-08-09T01:25:00.837Z,100229.02
2022-08-09T01:28:07.722Z,100226.72
2022-08-09T01:32:30.334Z,100224.42
2022-08-09T01:34:22.076Z,100232.61
2022-08-09T01:38:05.871Z,100225.41
2022-08-09T01:40:37.838Z,100229.17
2022-08-09T01:43:51.975Z,100221.90
2022-08-09T01:46:57.392Z,100228.37
2022-08-09T01:50:06.565Z,100231.77
2022-08-09T01:53:19.217Z,100231.48
2022-08-09T01:56:20.420Z,100236.52
2022-08-09T01:59:32.643Z,100236.38
2022-08-09T02:02:44.048Z,100235.05
2022-08-09T02:05:53.466Z,100241.41
2022-08-09T02:08:59.710Z,100239.29
2022-08-09T02:12:05.198Z,100244.92
2022-08-09T02:15:16.780Z,100244.00
2022-08-09T02:18:20.862Z,100241.11
2022-08-09T02:21:29.312Z,100244.91
2022-08-09T02:24:42.138Z,100242.81
2022-08-09T02:27:58.276Z,100243.33
2022-08-09T02:31:05.955Z,100239.69
2022-08-09T02:34:40.762Z,100239.14
2022-08-09T02:37:31.687Z,100243.13
2022-08-09T02:40:34.093Z,100246.03
2022-08-09T02:43:54.251Z,100247.89
2022-08-09T02:46:47.089Z,100253.89
2022-08-09T02:50:01.936Z,100252.45
2022-08-09T02:53:17.279Z,100253.84
2022-08-09T02:56:20.998Z,100259.27
2022-08-09T02:59:36.435Z,100260.78
2022-08-09T03:02:33.824Z,100266.17
2022-08-09T03:05:39.844Z,100260.61
2022-08-09T03:08:46.231Z,100267.97
2022-08-09T03:12:08.444Z,100269.31
2022-08-09T03:15:00.831Z,100269.83
2022-08-09T03:18:09.871Z,100270.11
2022-08-09T03:21:13.849Z,100264.54
2022-08-09T03:24:31.426Z,100259.96
2022-08-09T03:27:26.445Z,100264.86
2022-08-09T03:30:34.088Z,100265.22
2022-08-09T03:33:53.982Z,100261.41
2022-08-09T03:36:58.258Z,100269.48
2022-08-09T03:39:56.716Z,100268.54
2022-08-09T03:43:02.012Z,100270.61
2022-08-09T03:46:27.026Z,100273.37
2022-08-09T03:49:17.292Z,100272.64
2022-08-09T03:52:24.004Z,100277.87
2022-08-09T03:55:36.271Z,100270.80
2022-08-09T03:58:39.094Z,100268.38
2022-08-09T04:01:45.986Z,100275.50
2022-08-09T04:04:52.470Z,100269.02
2022-08-09T04:07:58.629Z,100271.59
2022-08-09T04:11:04.073Z,100275.09
2022-08-09T04:14:53.129Z,100279.38
2022-08-09T04:17:18.193Z,100265.28
2022-08-09T04:20:25.614Z,100264.25
2022-08-09T04:23:31.567Z,100269.61
2022-08-09T04:26:38.471Z,100279.00
2022-08-09T04:29:50.075Z,100280.40
2022-08-09T04:32:51.646Z,100278.20
2022-08-09T04:35:58.462Z,100279.48
2022-08-09T04:38:57.112Z,100270.98
2022-08-09T04:41:44.052Z,100273.91
2022-08-09T04:44:37.372Z,100272.60
2022-08-09T04:47:23.074Z,100270.41
2022-08-09T04:50:19.686Z,100277.20
2022-08-09T04:53:13.607Z,100273.61
2022-08-09T04:56:06.338Z,100271.70
2022-08-09T04:58:53.253Z,100276.27
2022-08-09T05:01:47.230Z,100269.01
2022-08-09T05:04:34.206Z,100272.98
2022-08-09T05:07:27.712Z,100268.52
2022-08-09T05:10:15.806Z,100269.15
2022-08-09T05:13:07.899Z,100272.23
2022-08-09T05:16:15.170Z,100270.27
2022-08-09T05:19:24.461Z,100271.09
2022-08-09T05:22:36.231Z,100271.37
2022-08-09T05:25:36.429Z,100264.37
2022-08-09T05:28:42.338Z,100268.29
2022-08-09T05:31:56.271Z,100269.09
2022-08-09T05:34:56.705Z,100278.32
2022-08-09T05:38:21.776Z,100277.16
2022-08-09T05:41:23.319Z,100267.89
2022-08-09T05:44:32.872Z,100265.30
2022-08-09T05:47:51.585Z,100266.41
2022-08-09T05:50:51.054Z,100263.27
2022-08-09T05:53:57.682Z,100264.05
2022-08-09T05:57:02.792Z,100262.04
2022-08-09T06:00:10.225Z,100263.64
2022-08-09T06:03:20.064Z,100261.63
2022-08-09T06:06:24.533Z,100261.50
2022-08-09T06:09:54.400Z,100261.23
2022-08-09T06:12:37.671Z,100255.52
2022-08-09T06:15:43.105Z,100253.50
2022-08-09T06:18:49.863Z,100249.66
2022-08-09T06:21:58.645Z,100253.80
2022-08-09T06:25:04.491Z,100253.62
2022-08-09T06:28:12.593Z,100255.44
2022-08-09T06:31:18.741Z,100255.09
2022-08-09T06:34:30.702Z,100246.03
2022-08-09T06:37:52.891Z,100243.37
2022-08-09T06:40:41.724Z,100242.05
2022-08-09T06:43:48.112Z,100244.03
2022-08-09T06:46:55.793Z,100243.96
2022-08-09T06:50:14.274Z,100245.54
2022-08-09T06:53:09.497Z,100243.76
2022-08-09T06:56:16.443Z,100240.45
2022-08-09T07:00:51.245Z,100246.99
2022-08-09T07:02:31.743Z,100248.89
2022-08-09T07:06:02.369Z,100256.12
2022-08-09T07:08:49.704Z,100254.27
2022-08-09T07:11:55.092Z,100262.16
2022-08-09T07:15:53.167Z,100252.46
2022-08-09T07:18:10.243Z,100258.27
2022-08-09T07:21:15.564Z,100256.06
2022-08-09T07:24:21.867Z,100252.64
2022-08-09T07:27:34.495Z,100252.64
2022-08-09T07:30:36.419Z,100251.88
2022-08-09T07:33:53.296Z,100254.12
2022-08-09T07:36:53.503Z,100254.81
2022-08-09T07:39:59.816Z,100246.25
2022-08-09T07:43:16.699Z,100255.09
2022-08-09T07:46:21.777Z,100255.09
2022-08-09T07:49:29.451Z,100252.25
2022-08-09T07:52:36.069Z,100261.63
2022-08-09T07:56:05.833Z,100257.25
2022-08-09T07:58:48.344Z,100260.11
2022-08-09T08:01:55.933Z,100259.05
2022-08-09T08:05:01.307Z,100259.88
2022-08-09T08:09:00.003Z,100248.38
2022-08-09T08:12:08.737Z,100258.16
2022-08-09T08:14:14.260Z,100250.91
2022-08-09T08:17:24.875Z,100248.40
2022-08-09T08:20:32.251Z,100255.91
2022-08-09T08:23:37.188Z,100249.09
2022-08-09T08:26:54.668Z,100239.38
2022-08-09T08:29:52.383Z,100249.80
2022-08-09T08:32:59.985Z,100244.87
2022-08-09T08:36:05.613Z,100241.71
2022-08-09T08:39:11.066Z,100240.98
2022-08-09T08:42:16.597Z,100235.48
2022-08-09T08:45:37.237Z,100249.88
2022-08-09T08:48:31.168Z,100236.23
2022-08-09T08:51:38.688Z,100248.85
2022-08-09T08:54:44.426Z,100237.41
2022-08-09T08:57:57.271Z,100240.67
2022-08-09T09:00:58.294Z,100240.09
2022-08-09T09:04:04.135Z,100231.47
2022-08-09T09:07:12.670Z,100225.42
2022-08-09T09:10:21.289Z,100226.50
2022-08-09T09:13:41.952Z,100228.39
2022-08-09T09:16:40.296Z,100221.17
2022-08-09T09:19:47.059Z,100223.72
2022-08-09T09:23:10.076Z,100223.33
2022-08-09T09:26:16.628Z,100216.50
2022-08-09T09:29:19.052Z,100229.23
2022-08-09T09:32:32.428Z,100213.76
2022-08-09T09:35:33.218Z,100217.27
2022-08-09T09:38:38.426Z,100219.46
2022-08-09T09:41:49.890Z,100218.05
2022-08-09T09:44:54.162Z,100220.48
2022-08-09T09:48:01.952Z,100215.91
2022-08-09T09:51:11.721Z,100222.77
2022-08-09T09:54:27.002Z,100215.41
2022-08-09T09:58:02.983Z,100212.28
2022-08-09T10:00:43.274Z,100214.92
2022-08-09T10:04:00.126Z,100217.17
2022-08-09T10:07:10.046Z,100218.24
2022-08-09T10:10:14.354Z,100218.44
2022-08-09T10:13:42.815Z,100208.19
2022-08-09T10:16:58.288Z,100227.03
2022-08-09T10:19:29.650Z,100216.25
2022-08-09T10:22:45.614Z,100206.77
2022-08-09T10:26:04.941Z,100214.09
2022-08-09T10:29:22.470Z,100211.70
2022-08-09T10:35:08.050Z,100216.16
2022-08-09T10:38:41.713Z,100211.33
2022-08-09T10:41:21.581Z,100211.81
2022-08-09T10:44:26.746Z,100213.75
2022-08-09T10:48:19.402Z,100208.09
2022-08-09T10:51:14.091Z,100208.49
2022-08-09T10:54:21.252Z,100201.89
2022-08-09T10:57:29.707Z,100195.58
2022-08-09T11:01:10.977Z,100204.39
2022-08-09T11:04:30.381Z,100202.54
2022-08-09T11:07:57.337Z,100201.25
2022-08-09T11:11:08.452Z,100194.14
2022-08-09T11:14:48.897Z,100193.06
2022-08-09T11:18:03.850Z,100190.88
2022-08-09T11:21:05.878Z,100189.46
2022-08-09T11:24:17.753Z,100187.28
2022-08-09T11:28:03.857Z,100181.45
2022-08-09T11:30:52.877Z,100183.58
2022-08-09T11:34:04.625Z,100175.56
2022-08-09T11:37:18.428Z,100168.42
2022-08-09T11:40:21.504Z,100171.49
2022-08-09T11:43:41.735Z,100166.31
2022-08-09T11:47:10.994Z,100161.91
2022-08-09T11:50:54.953Z,100162.91
2022-08-09T11:53:58.835Z,100167.69
2022-08-09T11:56:42.441Z,100158.07
2022-08-09T11:59:46.579Z,100156.66
2022-08-09T12:02:54.792Z,100152.16
2022-08-09T12:06:01.730Z,100145.66
2022-08-09T12:09:19.119Z,100155.76
2022-08-09T12:12:20.592Z,100144.66
2022-08-09T12:15:49.297Z,100145.01
2022-08-09T12:18:49.043Z,100144.32
2022-08-09T12:22:00.808Z,100153.00
2022-08-09T12:25:09.666Z,100142.73
2022-08-09T12:29:12.464Z,100138.00
2022-08-09T12:32:01.838Z,100144.32
2022-08-09T12:34:55.763Z,100137.58
2022-08-09T12:38:02.990Z,100134.34
2022-08-09T12:41:09.481Z,100131.53
2022-08-09T12:44:15.840Z,100129.15
2022-08-09T12:47:23.308Z,100134.08
2022-08-09T12:50:30.359Z,100124.22
2022-08-09T12:53:53.252Z,100122.66
2022-08-09T12:57:02.742Z,100127.33
2022-08-09T13:00:08.184Z,100126.98
2022-08-09T13:03:24.605Z,100130.97
2022-08-09T13:06:23.354Z,100126.72
2022-08-09T13:09:52.618Z,100126.23
2022-08-09T13:13:10.919Z,100123.06
2022-08-09T13:16:12.810Z,100124.05
2022-08-09T13:19:19.354Z,100107.81
2022-08-09T13:23:05.185Z,100122.23
2022-08-09T13:25:53.069Z,100126.48
2022-08-09T13:28:49.691Z,100119.15
2022-08-09T13:32:25.474Z,100115.39
2022-08-09T13:35:26.055Z,100114.90
2022-08-09T13:38:55.805Z,100108.81
2022-08-09T13:41:57.272Z,100117.66
2022-08-09T13:44:48.720Z,100119.07
2022-08-09T13:47:59.055Z,100108.57
2022-08-09T13:51:02.105Z,100110.05
2022-08-09T13:54:08.291Z,100110.23
2022-08-09T13:57:35.360Z,100110.81
2022-08-09T14:00:39.696Z,100109.98
2022-08-09T14:04:03.339Z,100104.38
2022-08-09T14:06:47.256Z,100099.41
2022-08-09T14:09:54.392Z,100103.34
2022-08-09T14:13:02.202Z,100095.22
2022-08-09T14:16:11.265Z,100103.31
2022-08-09T14:19:16.386Z,100099.84
2022-08-09T14:22:23.560Z,100104.58
2022-08-09T14:25:31.314Z,100096.85
2022-08-09T14:28:36.777Z,100100.27
2022-08-09T14:31:51.810Z,100101.01
2022-08-09T14:34:55.646Z,100102.33
2022-08-09T14:38:02.393Z,100102.09
2022-08-09T14:41:12.824Z,100099.98
2022-08-09T14:44:11.141Z,100094.55
2022-08-09T14:47:29.021Z,100096.56
2022-08-09T14:50:26.317Z,100090.36
2022-08-09T14:53:33.382Z,100095.55
2022-08-09T14:56:53.640Z,100096.47
2022-08-09T14:59:48.752Z,100095.70
2022-08-09T15:02:56.068Z,100094.81
2022-08-09T15:06:03.962Z,100093.45
2022-08-09T15:09:10.536Z,100090.38
2022-08-09T15:12:16.340Z,100093.60
2022-08-09T15:15:28.512Z,100085.02
2022-08-09T15:18:25.399Z,100086.82
2022-08-09T15:21:58.872Z,100087.99
2022-08-09T15:24:27.413Z,100089.94
2022-08-09T15:27:47.845Z,100084.03
2022-08-09T15:30:59.254Z,100086.47
2022-08-09T15:34:19.558Z,100082.25
2022-08-09T15:36:56.227Z,100082.19
2022-08-09T15:40:04.623Z,100078.08
2022-08-09T15:43:13.446Z,100082.20
2022-08-09T15:46:31.585Z,100080.96
2022-08-09T15:49:23.534Z,100073.55
2022-08-09T15:52:25.725Z,100084.63
2022-08-09T15:55:31.308Z,100081.69
2022-08-09T15:58:38.310Z,100084.42
2022-08-09T16:01:41.208Z,100076.81
2022-08-09T16:04:35.514Z,100088.26
2022-08-09T16:07:45.769Z,100087.05
2022-08-09T16:10:56.050Z,100083.94
2022-08-09T16:14:02.960Z,100087.78
2022-08-09T16:17:04.728Z,100090.88
2022-08-09T16:20:12.745Z,100082.92
2022-08-09T16:23:19.986Z,100082.52
2022-08-09T16:26:34.871Z,100082.37
2022-08-09T16:29:36.622Z,100082.37
2022-08-09T16:33:00.737Z,100079.32
2022-08-09T16:36:13.159Z,100096.61
2022-08-09T16:39:14.637Z,100099.66
2022-08-09T16:42:23.987Z,100095.12
2022-08-09T16:45:22.003Z,100095.30
2022-08-09T16:48:42.025Z,100097.21
2022-08-09T16:51:35.946Z,100094.02
2022-08-09T16:54:41.583Z,100097.00
2022-08-09T16:58:08.568Z,100099.19
2022-08-09T17:01:11.113Z,100100.50
2022-08-09T17:04:28.370Z,100097.85
2022-08-09T17:08:45.941Z,100102.78
2022-08-09T17:10:32.837Z,100103.77
2022-08-09T17:13:39.618Z,100105.03
2022-08-09T17:16:46.660Z,100105.41
2022-08-09T17:20:32.308Z,100111.14
2022-08-09T17:22:59.023Z,100111.24
2022-08-09T17:26:05.678Z,100110.76
2022-08-09T17:29:20.729Z,100115.66
2022-08-09T17:32:34.657Z,100116.03
2022-08-09T17:35:27.314Z,100113.53
2022-08-09T17:38:39.035Z,100115.80
2022-08-09T17:41:41.591Z,100108.34
2022-08-09T17:44:49.140Z,100112.86
2022-08-09T17:48:02.400Z,100114.84
2022-08-09T17:51:10.111Z,100113.77
2022-08-09T17:54:10.202Z,100117.45
2022-08-09T17:57:20.619Z,100114.06
2022-08-09T18:00:43.970Z,100127.27
2022-08-09T18:03:33.053Z,100129.55
2022-08-09T18:06:39.166Z,100128.70
2022-08-09T18:10:04.141Z,100134.88
2022-08-09T18:13:40.195Z,100136.86
2022-08-09T18:16:07.632Z,100133.23
2022-08-09T18:20:56.769Z,100138.00
2022-08-09T18:22:19.719Z,100136.60
2022-08-09T18:25:52.478Z,100138.85
2022-08-09T18:30:40.545Z,100133.50
2022-08-09T18:31:55.137Z,100137.70
2022-08-09T18:34:50.551Z,100138.83
2022-08-09T18:37:58.149Z,100136.31
2022-08-09T18:41:03.614Z,100137.16
2022-08-09T18:44:12.962Z,100137.14
2022-08-09T18:47:20.682Z,100133.48
2022-08-09T18:50:25.056Z,100136.30
2022-08-09T18:53:55.997Z,100131.22
2022-08-09T18:56:39.813Z,100129.83
2022-08-09T18:59:48.826Z,100126.98
2022-08-09T19:02:54.270Z,100127.50
2022-08-09T19:06:03.162Z,100131.13
2022-08-09T19:09:07.311Z,100126.09
2022-08-09T19:12:14.658Z,100127.16
2022-08-09T19:15:22.814Z,100129.69
2022-08-09T19:18:32.974Z,100123.81
2022-08-09T19:21:52.101Z,100126.59
2022-08-09T19:25:11.631Z,100124.38
2022-08-09T19:27:53.712Z,100115.39
2022-08-09T19:31:00.776Z,100118.78
2022-08-09T19:34:06.896Z,100122.69
2022-08-09T19:37:16.795Z,100115.69
2022-08-09T19:40:22.918Z,100121.00
2022-08-09T19:43:58.047Z,100114.28
2022-08-09T19:46:50.192Z,100113.70
2022-08-09T19:50:08.382Z,100118.16
2022-08-09T19:52:52.622Z,100117.90
2022-08-09T19:56:03.087Z,100121.23
2022-08-09T19:59:06.283Z,100107.77
2022-08-09T20:02:18.335Z,100110.01
2022-08-09T20:05:23.758Z,100114.45
2022-08-09T20:08:35.429Z,100112.42
2022-08-09T20:11:48.850Z,100111.84
2022-08-09T20:14:50.488Z,100117.98
2022-08-09T20:17:54.310Z,100112.91
2022-08-09T20:20:58.062Z,100119.58
2022-08-09T20:24:04.104Z,100115.36
2022-08-09T20:27:11.564Z,100105.28
2022-08-09T20:30:21.856Z,100109.69
2022-08-09T20:33:25.671Z,100107.98
2022-08-09T20:36:33.161Z,100107.64
2022-08-09T20:40:14.738Z,100106.48
2022-08-09T20:43:00.366Z,100101.46
2022-08-09T20:45:59.794Z,100103.10
2022-08-09T20:48:56.695Z,100101.39
2022-08-09T20:52:03.123Z,100097.14
2022-08-09T20:55:09.333Z,100097.41
2022-08-09T20:58:20.262Z,100095.39
2022-08-09T21:01:34.539Z,100086.77
2022-08-09T21:05:49.408Z,100089.77
2022-08-09T21:07:40.433Z,100090.29
2022-08-09T21:10:53.211Z,100084.98
2022-08-09T21:13:59.703Z,100087.22
2022-08-09T21:18:11.465Z,100078.76
2022-08-09T21:20:22.580Z,100084.39
2022-08-09T21:23:16.694Z,100079.88
2022-08-09T21:26:22.771Z,100086.34
2022-08-09T21:29:30.522Z,100089.05
2022-08-09T21:32:33.416Z,100091.36
2022-08-09T21:35:39.515Z,100082.08
2022-08-09T21:38:56.927Z,100084.26
2022-08-09T21:42:03.782Z,100085.62
2022-08-09T21:45:03.843Z,100078.59
2022-08-09T21:48:10.762Z,100081.57
2022-08-09T21:51:24.250Z,100077.34
2022-08-09T21:54:09.142Z,100075.02
2022-08-09T21:57:59.903Z,100081.63
2022-08-09T22:00:52.283Z,100075.99
2022-08-09T22:03:59.797Z,100072.55
2022-08-09T22:07:06.143Z,100069.43
2022-08-09T22:10:12.715Z,100071.02
2022-08-09T22:13:19.487Z,100069.38
2022-08-09T22:16:18.928Z,100063.73
2022-08-09T22:19:58.674Z,100060.47
2022-08-09T22:22:33.841Z,100057.58
2022-08-09T22:26:07.822Z,100053.22
2022-08-09T22:28:53.846Z,100053.49
2022-08-09T22:31:56.880Z,100057.28
2022-08-09T22:35:02.356Z,100054.73
2022-08-09T22:38:08.731Z,100048.75
2022-08-09T22:41:15.096Z,100044.29
2022-08-09T22:44:21.153Z,100044.91
2022-08-09T22:48:16.602Z,100042.27
2022-08-09T22:50:33.036Z,100040.57
2022-08-09T22:53:44.327Z,100038.01
2022-08-09T22:56:45.252Z,100035.02
2022-08-09T22:59:58.383Z,100032.50
2022-08-09T23:03:00.115Z,100031.82
2022-08-09T23:06:07.365Z,100034.47
2022-08-09T23:09:16.084Z,100032.67
2022-08-09T23:12:21.895Z,100032.07
2022-08-09T23:15:27.381Z,100026.14
2022-08-09T23:18:33.190Z,100029.84
2022-08-09T23:21:39.633Z,100028.05
2022-08-09T23:24:45.363Z,100024.06
2022-08-09T23:28:13.963Z,100022.26
2022-08-09T23:31:00.407Z,100019.69
2022-08-09T23:34:05.820Z,100021.23
2022-08-09T23:37:11.261Z,100017.98
2022-08-09T23:40:16.199Z,100012.66
2022-08-09T23:43:21.533Z,100009.87
2022-08-09T23:46:28.470Z,100010.91
2022-08-09T23:49:34.455Z,100004.23
2022-08-09T23:52:40.551Z,100008.22
2022-08-09T23:55:49.363Z,100006.70
2022-08-09T23:58:54.757Z,100003.89
